Time;durP1;ratioP1;P1;durP2;ratioP2;P2;SDS_P1;SDS_P2;PMS_P1;PMS_P2;Temp;Humidity;BMP_temperature;BMP_pressure;BME280_temperature;BME280_humidity;BME280_pressure;Samples;Min_cycle;Max_cycle;Signal;HPM_P1;HPM_P2
2023/05/29 00:01:52;;;;;;;11.48;5.13;;;;;;;14.63;64.64;102166.28;6246621;22;20006;-93
2023/05/29 00:04:17;;;;;;;12.00;5.57;;;;;;;14.51;65.26;102162.28;6246288;22;20000;-93
2023/05/29 00:06:42;;;;;;;11.68;4.82;;;;;;;14.52;65.05;102170.19;6246585;22;20011;-93
2023/05/29 00:09:08;;;;;;;14.93;5.00;;;;;;;14.43;65.31;102167.81;6246472;22;20432;-93
2023/05/29 00:11:33;;;;;;;10.45;4.65;;;;;;;14.35;65.36;102164.56;6246369;22;20039;-94
2023/05/29 00:13:59;;;;;;;8.50;4.55;;;;;;;14.29;65.15;102170.97;6245090;22;20007;-93
2023/05/29 00:16:24;;;;;;;12.98;5.15;;;;;;;14.24;65.31;102177.38;6270914;22;19999;-91
2023/05/29 00:18:51;;;;;;;14.15;4.60;;;;;;;14.18;65.15;102172.25;6271992;22;20031;-93
2023/05/29 00:21:17;;;;;;;13.75;3.95;;;;;;;13.99;65.12;102151.59;6274009;22;20042;-91
2023/05/29 00:23:42;;;;;;;12.30;4.15;;;;;;;14.07;65.14;102179.72;6244692;22;20344;-93
2023/05/29 00:26:08;;;;;;;10.75;4.05;;;;;;;14.02;65.03;102179.88;6272932;22;20010;-92
2023/05/29 00:28:34;;;;;;;11.60;3.80;;;;;;;13.98;65.04;102183.53;6244812;22;20090;-93
2023/05/29 00:31:00;;;;;;;9.77;3.80;;;;;;;13.93;64.59;102181.03;6245426;22;20483;-94
2023/05/29 00:33:26;;;;;;;13.15;4.57;;;;;;;13.88;64.76;102187.44;6273480;22;20196;-94
2023/05/29 00:35:51;;;;;;;13.75;4.20;;;;;;;13.75;64.47;102174.50;6246245;22;20437;-93
2023/05/29 00:38:16;;;;;;;12.75;3.88;;;;;;;13.75;64.47;102181.63;6272302;22;20434;-92
2023/05/29 00:40:42;;;;;;;10.75;4.10;;;;;;;13.70;64.62;102184.44;6247321;22;20435;-93
2023/05/29 00:43:07;;;;;;;8.77;3.55;;;;;;;13.69;64.04;102182.69;6273650;22;20003;-95
2023/05/29 00:45:36;;;;;;;12.95;3.75;;;;;;;13.74;63.60;102195.84;6246060;22;20089;-93
2023/05/29 00:48:03;;;;;;;7.28;3.00;;;;;;;13.66;63.76;102195.19;6273498;22;20093;-94
2023/05/29 00:50:28;;;;;;;8.73;3.17;;;;;;;13.56;63.25;102197.28;6246362;22;20083;-93
2023/05/29 00:52:54;;;;;;;17.25;3.85;;;;;;;13.59;63.18;102206.97;6246102;22;20097;-95
2023/05/29 00:55:19;;;;;;;14.02;3.08;;;;;;;13.50;63.08;102198.34;6273720;22;20019;-93
2023/05/29 00:57:46;;;;;;;13.07;3.10;;;;;;;13.44;62.94;102205.66;6246813;22;19999;-93
2023/05/29 01:00:13;;;;;;;16.73;3.17;;;;;;;13.41;62.76;102211.03;6273354;22;20443;-93
2023/05/29 01:02:40;;;;;;;12.77;3.30;;;;;;;13.38;62.71;102204.06;6246868;22;20003;-93
2023/05/29 01:05:09;;;;;;;14.18;3.45;;;;;;;13.35;62.77;102203.25;6246167;22;20082;-93
2023/05/29 01:07:34;;;;;;;13.30;3.65;;;;;;;13.37;62.54;102210.25;6246210;22;20039;-93
2023/05/29 01:10:00;;;;;;;10.77;3.28;;;;;;;13.35;62.63;102214.75;6246496;22;19999;-93
2023/05/29 01:12:47;;;;;;;14.68;3.47;;;;;;;13.32;62.59;102230.78;6246354;22;20006;-93
2023/05/29 01:15:44;;;;;;;18.27;3.95;;;;;;;13.32;62.50;102230.78;6245146;22;19999;-94
2023/05/29 01:18:46;;;;;;;12.77;3.60;;;;;;;13.35;62.30;102238.66;6271920;22;20027;-93
2023/05/29 01:21:27;;;;;;;11.60;3.33;;;;;;;13.15;62.57;102225.94;6245070;22;20018;-92
2023/05/29 01:24:02;;;;;;;14.60;3.55;;;;;;;13.14;63.16;102232.13;6244468;22;20010;-94
2023/05/29 01:26:49;;;;;;;10.10;2.78;;;;;;;13.17;62.79;102231.19;6272963;22;20447;-94
2023/05/29 01:29:19;;;;;;;13.50;3.75;;;;;;;13.12;62.83;102233.13;6272664;22;20513;-93
2023/05/29 01:31:46;;;;;;;13.40;3.80;;;;;;;13.07;63.19;102229.72;6273343;22;20454;-93
2023/05/29 01:34:12;;;;;;;8.20;2.83;;;;;;;12.99;63.36;102221.97;6273377;22;20094;-93
2023/05/29 01:36:37;;;;;;;11.20;3.40;;;;;;;12.97;63.42;102227.31;6245255;22;20423;-93
2023/05/29 01:39:03;;;;;;;10.63;2.95;;;;;;;13.02;63.10;102236.03;6245348;22;20004;-92
2023/05/29 01:41:29;;;;;;;10.52;3.05;;;;;;;13.00;63.23;102236.97;6273699;22;19999;-93
2023/05/29 01:43:57;;;;;;;9.45;2.55;;;;;;;12.96;62.85;102233.56;6272944;22;20050;-94
2023/05/29 01:46:25;;;;;;;9.65;2.65;;;;;;;12.92;63.02;102217.75;6245983;22;20314;-94
2023/05/29 01:48:50;;;;;;;11.60;3.10;;;;;;;12.83;62.99;102221.53;6272087;22;20435;-93
2023/05/29 01:51:16;;;;;;;9.18;2.83;;;;;;;12.84;63.39;102217.09;6244662;22;20019;-93
2023/05/29 01:53:42;;;;;;;10.27;2.80;;;;;;;12.88;63.01;102221.41;6245183;22;20015;-93
2023/05/29 01:56:07;;;;;;;13.63;3.17;;;;;;;12.96;63.23;102228.25;6245573;22;20004;-93
2023/05/29 01:58:34;;;;;;;12.88;2.85;;;;;;;12.80;63.05;102194.19;6245327;22;20450;-93
2023/05/29 02:01:01;;;;;;;10.98;2.60;;;;;;;13.06;62.46;102222.69;6245935;22;20008;-93
2023/05/29 02:03:30;;;;;;;11.32;2.58;;;;;;;13.07;62.41;102217.31;6245752;22;20035;-93
2023/05/29 02:05:57;;;;;;;11.32;2.78;;;;;;;12.80;62.68;102202.16;6273159;22;20026;-93
2023/05/29 02:08:22;;;;;;;10.18;3.08;;;;;;;12.82;63.04;102209.13;6244564;22;20459;-93
2023/05/29 02:10:47;;;;;;;11.25;2.65;;;;;;;12.77;63.05;102208.41;6272866;22;20003;-93
2023/05/29 02:13:13;;;;;;;13.98;2.67;;;;;;;12.75;63.10;102211.09;6244643;22;20003;-93
2023/05/29 02:15:38;;;;;;;12.48;2.50;;;;;;;12.72;63.08;102219.13;6245857;22;20488;-92
2023/05/29 02:18:03;;;;;;;12.23;3.20;;;;;;;12.63;62.92;102211.44;6245390;22;20003;-92
2023/05/29 02:20:29;;;;;;;8.52;2.40;;;;;;;12.67;63.25;102226.34;6244164;22;20003;-93
2023/05/29 02:22:54;;;;;;;11.15;2.88;;;;;;;12.65;63.11;102228.19;6270932;22;20073;-92
2023/05/29 02:25:20;;;;;;;12.82;2.75;;;;;;;12.65;63.00;102224.69;6271781;22;20432;-93
2023/05/29 02:27:45;;;;;;;13.27;3.17;;;;;;;12.52;63.44;102230.28;6271535;22;20007;-92
2023/05/29 02:30:11;;;;;;;11.20;2.92;;;;;;;12.43;63.18;102227.00;6244375;22;20016;-93
2023/05/29 02:32:36;;;;;;;11.48;2.42;;;;;;;12.39;63.66;102226.22;6245571;22;20003;-92
2023/05/29 02:35:02;;;;;;;13.10;2.75;;;;;;;12.37;63.37;102243.09;6272104;22;19999;-93
2023/05/29 02:37:27;;;;;;;15.05;2.88;;;;;;;12.19;64.41;102226.72;6244225;22;20411;-93
2023/05/29 02:39:53;;;;;;;8.07;2.63;;;;;;;12.18;64.23;102232.06;6245790;22;20083;-92
2023/05/29 02:42:18;;;;;;;10.68;2.22;;;;;;;12.20;64.40;102244.34;6245392;22;20094;-92
2023/05/29 02:44:44;;;;;;;10.50;2.30;;;;;;;12.26;64.30;102245.97;6271488;22;20070;-92
2023/05/29 02:47:09;;;;;;;10.75;2.58;;;;;;;12.21;64.66;102253.19;6271850;22;20006;-93
2023/05/29 02:49:34;;;;;;;13.88;2.67;;;;;;;12.18;64.37;102247.97;6245338;22;20387;-93
2023/05/29 02:52:00;;;;;;;12.75;2.55;;;;;;;12.09;64.61;102254.38;6257761;22;20416;-93
2023/05/29 02:54:25;;;;;;;12.45;3.15;;;;;;;12.03;64.39;102251.88;6213890;23;20004;-94
2023/05/29 02:56:51;;;;;;;10.75;2.60;;;;;;;12.03;64.84;102257.16;6242532;23;20026;-93
2023/05/29 02:59:17;;;;;;;10.30;2.65;;;;;;;12.02;64.93;102266.00;6214655;23;20035;-94
2023/05/29 03:01:42;;;;;;;12.20;2.88;;;;;;;11.93;64.98;102256.47;6243060;23;20324;-94
2023/05/29 03:04:09;;;;;;;7.95;2.72;;;;;;;11.89;65.09;102248.63;6215542;23;20004;-93
2023/05/29 03:06:36;;;;;;;12.75;2.80;;;;;;;11.92;64.70;102253.88;6243367;23;20091;-92
2023/05/29 03:09:02;;;;;;;14.25;3.15;;;;;;;11.94;65.40;102252.09;6216041;23;20007;-93
2023/05/29 03:11:28;;;;;;;10.32;2.70;;;;;;;11.91;65.22;102255.66;6242956;22;20008;-93
2023/05/29 03:13:54;;;;;;;6.57;2.42;;;;;;;11.96;65.18;102248.47;6215661;23;20377;-93
2023/05/29 03:16:19;;;;;;;13.25;2.65;;;;;;;11.90;65.29;102251.28;6216328;23;20058;-92
2023/05/29 03:18:45;;;;;;;12.48;2.78;;;;;;;11.94;65.25;102252.94;6243487;23;20004;-93
2023/05/29 03:21:10;;;;;;;12.50;2.40;;;;;;;11.99;65.36;102261.66;6217274;23;20000;-93
2023/05/29 03:23:36;;;;;;;11.68;2.22;;;;;;;11.96;65.38;102255.56;6241550;23;20070;-93
2023/05/29 03:26:03;;;;;;;17.58;3.05;;;;;;;11.96;65.52;102253.78;6241643;23;20012;-93
2023/05/29 03:28:28;;;;;;;16.65;2.80;;;;;;;11.90;65.68;102251.28;6214318;23;20019;-92
2023/05/29 03:30:53;;;;;;;12.95;2.63;;;;;;;11.90;65.40;102259.22;6215662;23;20008;-92
2023/05/29 03:33:19;;;;;;;8.88;2.45;;;;;;;11.90;65.82;102256.56;6216198;23;20008;-94
2023/05/29 03:35:44;;;;;;;12.63;2.97;;;;;;;11.90;65.75;102258.34;6214707;23;20058;-92
2023/05/29 03:38:10;;;;;;;12.90;2.63;;;;;;;11.92;65.99;102267.13;6212645;23;20073;-92
2023/05/29 03:40:35;;;;;;;10.18;2.83;;;;;;;11.84;65.96;102259.34;6239878;23;20033;-93
2023/05/29 03:43:00;;;;;;;12.18;3.08;;;;;;;11.80;66.22;102268.25;6241192;23;20000;-94
2023/05/29 03:45:25;;;;;;;11.30;2.40;;;;;;;11.86;65.96;102264.63;6238552;23;20054;-91
2023/05/29 03:47:51;;;;;;;12.80;2.80;;;;;;;11.75;66.40;102251.59;6241103;23;20000;-93
2023/05/29 03:50:16;;;;;;;13.43;2.78;;;;;;;11.73;66.39;102256.03;6215770;23;20073;-92
2023/05/29 03:52:42;;;;;;;12.70;3.05;;;;;;;11.73;66.66;102262.22;6265820;22;20504;-93
2023/05/29 03:55:12;;;;;;;12.82;2.90;;;;;;;11.73;67.03;102269.28;6245686;22;20000;-93
2023/05/29 03:57:38;;;;;;;12.38;2.75;;;;;;;11.79;66.66;102273.56;6271710;22;20078;-93
2023/05/29 04:00:04;;;;;;;12.20;2.78;;;;;;;11.74;66.42;102258.66;6242865;22;20088;-92
2023/05/29 04:02:29;;;;;;;12.40;2.25;;;;;;;11.85;66.51;102284.09;6243529;22;20049;-92
2023/05/29 04:04:55;;;;;;;11.30;2.70;;;;;;;11.78;66.17;102266.53;6269690;22;20012;-92
2023/05/29 04:07:21;;;;;;;15.50;2.40;;;;;;;11.86;66.70;102275.22;6243024;22;20086;-92
2023/05/29 04:09:47;;;;;;;12.13;3.38;;;;;;;11.74;66.69;102287.78;6242497;22;20086;-92
2023/05/29 04:12:13;;;;;;;13.50;2.90;;;;;;;11.70;66.88;102282.59;6242826;22;20054;-92
2023/05/29 04:14:38;;;;;;;8.50;2.55;;;;;;;11.65;67.27;102293.28;6271533;22;20094;-93
2023/05/29 04:17:04;;;;;;;14.48;2.70;;;;;;;11.64;67.75;102295.97;6272354;22;20078;-92
2023/05/29 04:19:29;;;;;;;18.65;3.17;;;;;;;11.65;67.35;102290.63;6272851;22;20379;-93
2023/05/29 04:21:54;;;;;;;11.23;2.83;;;;;;;11.69;67.29;102289.69;6272258;22;20010;-93
2023/05/29 04:24:20;;;;;;;13.82;2.63;;;;;;;11.70;67.23;102296.75;6245782;22;20006;-93
2023/05/29 04:26:45;;;;;;;12.95;2.90;;;;;;;11.71;67.29;102290.53;6271839;22;20003;-92
2023/05/29 04:29:12;;;;;;;16.73;2.83;;;;;;;11.80;66.98;102297.41;6246452;22;20090;-93
2023/05/29 04:31:38;;;;;;;12.55;3.00;;;;;;;11.86;66.88;102297.31;6245844;22;20007;-93
2023/05/29 04:34:04;;;;;;;18.52;2.92;;;;;;;11.88;66.57;102297.25;6245187;22;20010;-92
2023/05/29 04:36:32;;;;;;;13.23;2.85;;;;;;;11.96;66.51;102303.25;6246167;22;20394;-92
2023/05/29 04:38:58;;;;;;;17.80;2.85;;;;;;;11.97;66.48;102302.34;6245154;22;20004;-93
2023/05/29 04:41:29;;;;;;;13.63;2.92;;;;;;;11.97;66.22;102307.66;6246353;22;20000;-93
2023/05/29 04:43:58;;;;;;;16.23;3.20;;;;;;;11.98;66.21;102309.38;6245514;22;20003;-92
2023/05/29 04:46:24;;;;;;;16.40;3.13;;;;;;;12.06;66.00;102312.75;6272603;22;20434;-92
2023/05/29 04:48:53;;;;;;;12.60;2.78;;;;;;;12.08;65.92;102312.72;6272510;22;20104;-91
2023/05/29 04:51:22;;;;;;;12.30;3.03;;;;;;;12.10;66.40;102298.53;6245969;22;20020;-92
2023/05/29 04:53:49;;;;;;;11.13;2.53;;;;;;;12.16;65.23;102316.06;6272558;22;20079;-92
2023/05/29 04:56:15;;;;;;;11.68;2.75;;;;;;;12.13;65.13;102295.81;6271215;22;20045;-93
2023/05/29 04:58:41;;;;;;;14.05;3.35;;;;;;;12.12;65.17;102291.38;6271662;22;20007;-92
2023/05/29 05:01:08;;;;;;;15.50;3.13;;;;;;;12.11;65.02;102304.69;6272797;22;20011;-92
2023/05/29 05:03:34;;;;;;;13.05;2.20;;;;;;;12.19;64.76;102308.91;6245945;22;20010;-91
2023/05/29 05:06:03;;;;;;;13.55;2.50;;;;;;;12.17;64.79;102304.53;6244870;22;20019;-92
2023/05/29 05:08:29;;;;;;;12.73;2.42;;;;;;;12.22;64.86;102307.97;6245770;22;20083;-93
2023/05/29 05:10:55;;;;;;;14.57;2.70;;;;;;;12.20;64.53;102300.03;6272960;22;20004;-91
2023/05/29 05:13:20;;;;;;;16.80;2.90;;;;;;;12.21;64.86;102315.03;6272822;22;20014;-92
2023/05/29 05:15:45;;;;;;;13.07;2.88;;;;;;;12.27;64.63;102308.75;6271554;22;20007;-92
2023/05/29 05:18:11;;;;;;;8.70;2.42;;;;;;;12.32;64.70;102313.94;6246746;22;20037;-92
2023/05/29 05:20:36;;;;;;;18.45;2.72;;;;;;;12.36;64.45;102313.81;6272664;22;20003;-92
2023/05/29 05:23:02;;;;;;;9.20;2.60;;;;;;;12.46;64.41;102319.78;6245253;22;20018;-92
2023/05/29 05:25:27;;;;;;;16.42;2.95;;;;;;;12.51;63.88;102320.53;6271896;22;20031;-92
2023/05/29 05:27:52;;;;;;;15.98;3.65;;;;;;;12.54;63.85;102325.75;6245820;22;20034;-92
2023/05/29 05:30:18;;;;;;;13.82;3.92;;;;;;;12.52;63.92;102325.78;6245183;22;20483;-91
2023/05/29 05:32:43;;;;;;;17.38;3.47;;;;;;;12.55;63.78;102337.25;6273140;22;20007;-92
2023/05/29 05:35:11;;;;;;;19.52;2.97;;;;;;;12.62;63.57;102345.00;6272935;22;20006;-93
2023/05/29 05:37:36;;;;;;;11.60;3.35;;;;;;;12.68;63.92;102338.66;6245150;22;20000;-92
2023/05/29 05:40:03;;;;;;;13.02;3.00;;;;;;;12.65;63.54;102338.78;6243123;22;20462;-92
2023/05/29 05:42:29;;;;;;;12.90;2.55;;;;;;;12.71;62.85;102336.81;6271772;22;20386;-92
2023/05/29 05:44:54;;;;;;;14.70;2.47;;;;;;;12.67;63.00;102327.19;6245394;22;20011;-92
2023/05/29 05:47:20;;;;;;;13.95;3.03;;;;;;;12.63;62.66;102320.22;6245377;22;20444;-92
2023/05/29 05:49:45;;;;;;;12.25;2.80;;;;;;;12.71;63.20;102338.59;6272093;22;20004;-92
2023/05/29 05:52:10;;;;;;;16.33;3.15;;;;;;;12.71;63.02;102334.16;6245773;22;20015;-91
2023/05/29 05:54:36;;;;;;;13.75;2.63;;;;;;;12.71;62.46;102333.31;6245138;22;20002;-92
2023/05/29 05:57:02;;;;;;;15.15;2.45;;;;;;;12.69;63.03;102327.16;6272980;22;20439;-93
2023/05/29 05:59:28;;;;;;;13.52;2.90;;;;;;;12.76;62.32;102345.53;6244736;22;20003;-92
2023/05/29 06:01:54;;;;;;;14.43;2.45;;;;;;;12.75;62.22;102329.66;6246223;22;20011;-91
2023/05/29 06:04:20;;;;;;;18.95;3.17;;;;;;;12.86;62.66;102326.72;6245400;22;20086;-92
2023/05/29 06:06:45;;;;;;;12.57;2.80;;;;;;;12.92;62.42;102323.94;6274666;22;20084;-92
2023/05/29 06:09:11;;;;;;;18.08;2.97;;;;;;;13.11;62.33;102341.13;6245805;22;20003;-91
2023/05/29 06:11:37;;;;;;;16.42;3.20;;;;;;;13.14;61.33;102333.03;6246174;22;20023;-93
2023/05/29 06:14:03;;;;;;;16.88;3.22;;;;;;;13.15;60.73;102329.50;6244789;22;20031;-92
2023/05/29 06:16:28;;;;;;;11.15;2.97;;;;;;;13.29;60.58;102342.44;6273995;22;20059;-93
2023/05/29 06:18:54;;;;;;;13.50;2.50;;;;;;;13.48;61.16;102338.34;6274388;22;20013;-93
2023/05/29 06:21:19;;;;;;;16.40;2.72;;;;;;;13.58;59.81;102338.97;6273988;22;20004;-93
2023/05/29 06:23:45;;;;;;;18.85;2.45;;;;;;;13.73;59.33;102338.50;6274356;22;20015;-93
2023/05/29 06:26:11;;;;;;;14.88;3.10;;;;;;;13.90;58.15;102346.00;6272227;22;20000;-94
2023/05/29 06:28:36;;;;;;;10.23;2.60;;;;;;;14.00;58.16;102343.91;6245714;22;20010;-94
2023/05/29 06:31:02;;;;;;;10.82;2.35;;;;;;;14.13;57.62;102357.69;6245004;22;20078;-95
2023/05/29 06:33:27;;;;;;;15.00;2.35;;;;;;;14.18;57.34;102350.47;6245948;22;20012;-94
2023/05/29 06:35:52;;;;;;;15.70;2.75;;;;;;;14.23;56.96;102346.75;6246312;22;20090;-94
2023/05/29 06:38:18;;;;;;;11.20;2.55;;;;;;;14.44;57.24;102360.28;6248902;22;20008;-93
2023/05/29 06:40:43;;;;;;;11.93;2.15;;;;;;;14.62;55.92;102359.72;6250819;22;20494;-94
2023/05/29 06:43:09;;;;;;;9.65;2.35;;;;;;;14.80;56.56;102351.13;6249822;22;20014;-95
2023/05/29 06:45:34;;;;;;;14.95;2.22;;;;;;;15.02;55.94;102361.06;6250839;22;20011;-95
2023/05/29 06:48:00;;;;;;;13.60;2.72;;;;;;;15.13;55.61;102356.22;6253249;22;20007;-94
2023/05/29 06:50:25;;;;;;;11.07;2.50;;;;;;;15.25;52.53;102352.25;6276898;22;20074;-94
2023/05/29 06:52:50;;;;;;;10.07;2.70;;;;;;;15.29;52.58;102353.84;6275371;22;20012;-95
2023/05/29 06:55:16;;;;;;;9.90;2.53;;;;;;;15.38;52.90;102352.66;6248373;22;20050;-95
2023/05/29 06:57:41;;;;;;;10.88;2.35;;;;;;;15.37;52.78;102349.13;6249369;22;20006;-95
2023/05/29 07:00:09;;;;;;;15.18;2.20;;;;;;;15.48;53.46;102362.06;6247319;22;20337;-93
2023/05/29 07:02:35;;;;;;;12.70;2.22;;;;;;;15.71;54.92;102358.59;6252116;22;20041;-94
2023/05/29 07:05:00;;;;;;;11.93;2.30;;;;;;;15.89;52.69;102367.69;6278634;22;20007;-93
2023/05/29 07:07:26;;;;;;;11.32;2.58;;;;;;;15.96;51.33;102364.75;6251204;22;19999;-95
2023/05/29 07:09:51;;;;;;;14.35;2.80;;;;;;;16.01;51.53;102357.44;6248030;22;20004;-94
2023/05/29 07:12:16;;;;;;;17.85;2.70;;;;;;;16.11;51.92;102357.94;6248725;22;20014;-95
2023/05/29 07:14:42;;;;;;;9.38;2.33;;;;;;;16.24;50.33;102361.88;6246754;22;20057;-94
2023/05/29 07:17:07;;;;;;;11.00;2.30;;;;;;;16.37;50.70;102356.94;6247610;22;20062;-94
2023/05/29 07:19:33;;;;;;;9.07;2.45;;;;;;;16.53;50.08;102366.03;6248071;22;20004;-94
2023/05/29 07:21:59;;;;;;;7.93;2.10;;;;;;;16.65;48.65;102363.81;6250837;22;20000;-93
2023/05/29 07:24:25;;;;;;;10.93;2.25;;;;;;;16.79;49.06;102362.34;6274597;22;20164;-95
2023/05/29 07:26:50;;;;;;;10.27;2.13;;;;;;;16.87;48.86;102364.66;6248471;22;20083;-95
2023/05/29 07:29:17;;;;;;;14.50;2.50;;;;;;;17.24;48.88;102374.63;6246955;22;20002;-94
2023/05/29 07:31:44;;;;;;;8.27;2.20;;;;;;;17.75;46.54;102361.72;6249993;22;20011;-94
2023/05/29 07:34:10;;;;;;;13.27;2.03;;;;;;;18.11;47.55;102359.13;6248206;22;20053;-95
2023/05/29 07:36:35;;;;;;;8.00;2.13;;;;;;;18.53;45.89;102379.44;6249423;22;20057;-95
2023/05/29 07:39:02;;;;;;;6.50;2.17;;;;;;;18.93;43.05;102372.09;6249150;22;20248;-94
2023/05/29 07:41:27;;;;;;;13.15;2.80;;;;;;;19.23;42.15;102366.97;6247849;22;20027;-95
2023/05/29 07:43:53;;;;;;;11.57;2.40;;;;;;;19.46;42.15;102369.31;6247268;22;20007;-94
2023/05/29 07:46:19;;;;;;;8.55;2.03;;;;;;;19.83;42.45;102381.66;6247143;22;20069;-94
2023/05/29 07:48:46;;;;;;;12.25;2.75;;;;;;;20.23;40.55;102379.44;6248290;22;19996;-93
2023/05/29 07:51:11;;;;;;;11.63;2.03;;;;;;;20.64;39.93;102376.22;6245741;22;20460;-93
2023/05/29 07:53:37;;;;;;;7.93;2.13;;;;;;;20.97;38.96;102376.06;6245748;22;20035;-94
2023/05/29 07:56:02;;;;;;;16.25;2.72;;;;;;;21.05;37.79;102383.69;6244692;22;20006;-94
2023/05/29 07:58:28;;;;;;;14.25;2.40;;;;;;;21.07;38.24;102384.44;6246341;22;20436;-94
2023/05/29 08:00:53;;;;;;;10.27;2.33;;;;;;;21.16;38.55;102367.75;6274443;22;20297;-94
2023/05/29 08:03:18;;;;;;;10.25;2.13;;;;;;;21.59;38.22;102382.19;6246909;22;20007;-93
2023/05/29 08:05:44;;;;;;;10.30;1.85;;;;;;;21.97;37.93;102387.00;6245926;22;20035;-93
2023/05/29 08:08:12;;;;;;;12.60;2.40;;;;;;;22.06;35.75;102369.38;6246809;22;20023;-94
2023/05/29 08:10:38;;;;;;;6.80;2.13;;;;;;;22.13;36.17;102381.50;6272834;22;20509;-94
2023/05/29 08:13:03;;;;;;;7.45;1.80;;;;;;;22.29;35.46;102386.75;6247071;22;20004;-92
2023/05/29 08:15:28;;;;;;;8.88;2.42;;;;;;;22.82;34.59;102371.56;6271772;22;20066;-92
2023/05/29 08:17:54;;;;;;;8.60;2.25;;;;;;;23.12;33.75;102374.03;6244013;22;20015;-93
2023/05/29 08:20:20;;;;;;;9.15;2.13;;;;;;;23.20;33.34;102379.75;6272212;22;20000;-93
2023/05/29 08:22:45;;;;;;;13.05;2.80;;;;;;;23.39;33.45;102382.03;6274444;22;20065;-94
2023/05/29 08:25:10;;;;;;;6.15;1.90;;;;;;;23.43;32.88;102381.72;6245129;22;20371;-93
2023/05/29 08:27:36;;;;;;;10.18;2.05;;;;;;;23.48;32.20;102384.09;6245798;22;20039;-94
2023/05/29 08:30:03;;;;;;;6.85;2.40;;;;;;;23.62;33.12;102394.78;6244745;22;20007;-94
2023/05/29 08:32:28;;;;;;;10.63;3.13;;;;;;;23.77;33.00;102383.91;6245192;22;20159;-92
2023/05/29 08:34:54;;;;;;;11.10;2.47;;;;;;;23.96;33.41;102394.25;6245547;22;20378;-93
2023/05/29 08:37:19;;;;;;;7.70;1.88;;;;;;;24.08;33.06;102385.25;6272293;22;20003;-93
2023/05/29 08:39:45;;;;;;;13.25;2.80;;;;;;;24.21;32.30;102391.50;6245574;22;20011;-93
2023/05/29 08:42:17;;;;;;;9.55;2.35;;;;;;;24.13;31.71;102383.09;6245507;22;20431;-92
2023/05/29 08:44:46;;;;;;;9.85;2.35;;;;;;;23.93;33.19;102393.50;6271456;22;19999;-93
2023/05/29 08:47:18;;;;;;;6.15;2.05;;;;;;;24.04;33.16;102392.72;6241218;22;20012;-93
2023/05/29 08:49:45;;;;;;;9.25;2.70;;;;;;;24.29;30.72;102391.78;6240909;22;20486;-94
2023/05/29 08:52:19;;;;;;;9.88;2.72;;;;;;;24.30;31.01;102398.06;6270135;22;20027;-93
2023/05/29 08:54:46;;;;;;;7.05;1.85;;;;;;;24.19;32.08;102397.00;6243862;22;20038;-92
2023/05/29 08:57:11;;;;;;;5.47;1.90;;;;;;;24.03;30.61;102392.84;6243085;22;20065;-94
2023/05/29 08:59:41;;;;;;;6.57;2.10;;;;;;;23.90;32.65;102398.25;6267893;22;20015;-92
2023/05/29 09:02:06;;;;;;;9.65;2.30;;;;;;;23.95;32.68;102403.34;6240691;22;20479;-93
2023/05/29 09:04:32;;;;;;;7.22;2.08;;;;;;;24.00;31.56;102402.03;6271464;22;20079;-92
2023/05/29 09:06:58;;;;;;;9.75;2.10;;;;;;;23.81;31.81;102402.47;6269006;22;20003;-93
2023/05/29 09:09:26;;;;;;;8.82;2.58;;;;;;;23.74;31.44;102400.34;6242370;22;20004;-92
2023/05/29 09:11:53;;;;;;;9.95;2.65;;;;;;;23.77;31.97;102403.66;6243150;22;20008;-92
2023/05/29 09:14:40;;;;;;;7.75;2.05;;;;;;;24.01;34.14;102398.34;6268446;22;20004;-92
2023/05/29 09:17:08;;;;;;;10.98;2.40;;;;;;;24.10;32.38;102403.06;6241111;22;20011;-93
2023/05/29 09:19:33;;;;;;;8.02;2.20;;;;;;;23.95;31.47;102409.59;6241810;22;20377;-93
2023/05/29 09:22:07;;;;;;;7.78;2.10;;;;;;;23.71;31.97;102408.66;6268333;22;20007;-93
2023/05/29 09:24:34;;;;;;;11.35;2.85;;;;;;;23.75;32.78;102408.31;6270623;22;20000;-93
2023/05/29 09:27:00;;;;;;;7.07;2.20;;;;;;;23.86;32.62;102404.84;6269024;22;20003;-93
2023/05/29 09:29:47;;;;;;;9.70;2.35;;;;;;;23.98;33.68;102400.41;6238529;22;20676;-92
2023/05/29 09:32:17;;;;;;;9.18;2.10;;;;;;;24.15;31.45;102398.22;6269457;22;20016;-92
2023/05/29 09:34:44;;;;;;;7.15;2.17;;;;;;;23.98;31.82;102392.31;6272278;22;20003;-94
2023/05/29 09:37:10;;;;;;;7.40;2.40;;;;;;;23.97;32.13;102404.97;6246614;22;20343;-93
2023/05/29 09:39:41;;;;;;;9.93;2.45;;;;;;;24.12;32.14;102402.97;6272219;22;20007;-92
2023/05/29 09:42:07;;;;;;;5.75;2.13;;;;;;;24.08;32.01;102393.38;6272765;22;20400;-93
2023/05/29 09:44:32;;;;;;;5.97;2.15;;;;;;;24.11;30.61;102390.44;6245772;22;20011;-93
2023/05/29 09:46:59;;;;;;;5.28;2.05;;;;;;;24.13;31.19;102391.19;6272707;22;19999;-94
2023/05/29 09:49:26;;;;;;;9.90;2.22;;;;;;;24.22;32.45;102395.94;6248388;22;20007;-94
2023/05/29 09:51:54;;;;;;;10.77;2.75;;;;;;;24.52;32.59;102402.78;6247751;22;20019;-94
2023/05/29 09:54:20;;;;;;;9.32;2.03;;;;;;;24.87;31.61;102395.56;6244143;22;20008;-93
2023/05/29 09:56:46;;;;;;;11.68;2.22;;;;;;;24.84;31.78;102392.22;6246795;22;20014;-94
2023/05/29 09:59:13;;;;;;;10.48;2.53;;;;;;;24.64;31.00;102405.44;6250571;22;20459;-94
2023/05/29 10:01:46;;;;;;;9.95;2.70;;;;;;;24.55;30.49;102398.00;6248176;22;20047;-93
2023/05/29 10:04:16;;;;;;;7.85;2.33;;;;;;;24.47;31.48;102396.84;6252217;22;20003;-93
2023/05/29 10:06:46;;;;;;;9.70;2.58;;;;;;;24.51;32.00;102391.09;6249176;22;20004;-93
2023/05/29 10:09:15;;;;;;;9.55;2.35;;;;;;;24.91;32.72;102390.81;6250177;22;20038;-94
2023/05/29 10:11:43;;;;;;;8.40;2.63;;;;;;;25.23;31.17;102387.47;6246326;22;20011;-93
2023/05/29 10:14:15;;;;;;;9.63;2.60;;;;;;;25.06;30.81;102407.69;6280068;22;20010;-94
2023/05/29 10:16:45;;;;;;;5.95;2.35;;;;;;;25.17;30.24;102394.22;6251206;22;20003;-92
2023/05/29 10:19:15;;;;;;;8.38;2.25;;;;;;;25.21;29.88;102394.84;6247987;22;20047;-94
2023/05/29 10:21:41;;;;;;;8.80;2.67;;;;;;;25.26;30.87;102385.38;6253203;22;20054;-94
2023/05/29 10:24:08;;;;;;;8.77;2.78;;;;;;;25.58;30.18;102387.41;6275320;22;20378;-92
2023/05/29 10:26:39;;;;;;;5.68;2.13;;;;;;;25.84;29.95;102393.50;6244999;22;20015;-92
2023/05/29 10:29:07;;;;;;;9.05;2.70;;;;;;;25.79;29.52;102391.16;6252047;22;20011;-93
2023/05/29 10:31:45;;;;;;;9.65;2.30;;;;;;;25.53;30.74;102379.66;6253672;22;19999;-93
2023/05/29 10:34:47;;;;;;;6.05;2.38;;;;;;;25.97;29.99;102383.38;6250085;22;20011;-92
2023/05/29 10:37:42;;;;;;;9.60;2.53;;;;;;;26.33;29.87;102378.66;6256835;22;20007;-91
2023/05/29 10:40:14;;;;;;;10.50;2.83;;;;;;;26.48;28.60;102381.97;6244689;22;20303;-95
2023/05/29 10:42:49;;;;;;;8.80;1.98;;;;;;;26.77;28.76;102380.41;6248702;22;20008;-94
2023/05/29 10:45:32;;;;;;;7.07;2.33;;;;;;;26.77;28.62;102385.81;6247879;22;20012;-92
2023/05/29 10:48:06;;;;;;;12.05;2.47;;;;;;;26.59;28.36;102390.09;6242992;22;20157;-94
2023/05/29 10:50:36;;;;;;;7.50;2.40;;;;;;;26.30;28.62;102384.31;6251383;22;20081;-94
2023/05/29 10:53:02;;;;;;;9.18;2.28;;;;;;;25.96;28.27;102381.66;6277714;22;20603;-95
2023/05/29 10:55:38;;;;;;;6.63;2.30;;;;;;;26.00;28.80;102376.84;6255187;22;20003;-94
2023/05/29 10:58:08;;;;;;;49.03;5.68;;;;;;;26.26;27.84;102375.59;6282342;22;19999;-94
2023/05/29 11:00:41;;;;;;;8.07;2.55;;;;;;;26.43;28.25;102380.50;6263276;22;20000;-94
2023/05/29 11:03:13;;;;;;;6.57;2.00;;;;;;;26.68;27.29;102383.88;6258197;22;20007;-93
2023/05/29 11:06:04;;;;;;;;;;;;;;;27.06;27.53;102375.19;6282123;22;20014;-95
2023/05/29 11:08:53;;;;;;;8.25;2.70;;;;;;;26.96;27.43;102374.25;6236847;22;19910;-94
2023/05/29 11:12:05;;;;;;;4.10;1.80;;;;;;;26.75;27.61;102370.66;6281620;22;20011;-95
2023/05/29 11:14:45;;;;;;;9.35;2.38;;;;;;;26.64;27.81;102375.13;6254095;22;19992;-94
2023/05/29 11:17:28;;;;;;;11.13;2.65;;;;;;;26.64;29.00;102360.72;6256764;22;20018;-93
2023/05/29 11:20:00;;;;;;;8.52;2.53;;;;;;;26.63;28.45;102364.44;6249509;22;19988;-94
2023/05/29 11:22:32;;;;;;;;;;;;;;;27.06;27.31;102374.34;6253248;22;20011;-94